Darstellungsparameter: Aktuell verwendete Einstellungen:
Skalierung der Graphiken ... ?
xyx+y,   Skalierungsfaktor:      Skalierung: Modus: x, Faktor: 1
Darstellungszeitraum ... ?
Vom - - bis: - -   Zeitraum: 02.12.2016 - 02.12.2016
Min/Max/Avg-Anzeige ... ?
Zeige MMA aktuell
Zeige MMA Monat
Zeige MMA alles
Zeige --A aktuell
Zeige --A Monat
Zeige --A alles
Keine MMA-Anzeige
MMA:
Average (ber die Originaldaten)
MMA-Basis: 02.12.2016 - 02.12.2016
Quicknavigation für Darstellung... ?
Tage:      1T, 2T, 3T, 5T -1T -2T -3T -5T +1T +2T +3T +5T
Wochen: 1W, 2W, 3W -1W -2W -3W +1W +2W +3W
Monate: 1M, 3M, 6M -1M -3M -6M +1M +3M +6M
Jahre:    1J, 3J, 5J, 10J -1J -3J -5J -10J +1J +3J +5J +10J
Nutze für die Darstellung ... ?
Originaldaten oder Mittelwerte auf ...
Stundenbasis Tagesbasis Wochenbasis
Monatsbasis Jahresbasis      Datenbasis: Original-Daten
Darstellen als:
Statistik (Auto) Statistik J:M      Darstellung:
Zur Graphik,    zurück zur Übersicht aller Sensoren.
 
Tabellarische Datenbersicht: ?
 
Sensor: Nr:Datum:Temp:Abs-Feuchte:Windchill:Wind:
Aussen-T/F 1 02-12-2016 00:00:00 4.8 C 6.1 g/m*3 3.36 C 6.4 km/h
2 02-12-2016 00:05:00 4.8 C 6.04 g/m*3 4.8 C 0 km/h
3 02-12-2016 00:10:00 4.8 C 6.1 g/m*3 2.87 C 8.1 km/h
4 02-12-2016 00:15:00 4.8 C 6.1 g/m*3 2.15 C 11.3 km/h
5 02-12-2016 00:20:00 4.8 C 6.1 g/m*3 2.87 C 8.1 km/h
6 02-12-2016 00:25:00 4.7 C 6.06 g/m*3 3.25 C 6.4 km/h
7 02-12-2016 00:30:00 4.7 C 6.06 g/m*3 2.76 C 8.1 km/h
8 02-12-2016 00:35:00 4.7 C 6.06 g/m*3 2.37 C 9.7 km/h
9 02-12-2016 00:40:00 4.7 C 6.06 g/m*3 3.25 C 6.4 km/h
10 02-12-2016 00:45:00 4.7 C 6.06 g/m*3 4.7 C 4.8 km/h
11 02-12-2016 00:50:00 4.7 C 6.06 g/m*3 3.25 C 6.4 km/h
12 02-12-2016 00:55:00 4.7 C 6.06 g/m*3 4.7 C 3.2 km/h
13 02-12-2016 01:00:00 4.7 C 6.06 g/m*3 4.7 C 3.2 km/h
14 02-12-2016 01:05:00 4.7 C 6.13 g/m*3 2.03 C 11.3 km/h
15 02-12-2016 01:10:00 4.7 C 6.13 g/m*3 2.37 C 9.7 km/h
16 02-12-2016 01:15:00 4.8 C 6.17 g/m*3 3.36 C 6.4 km/h
17 02-12-2016 01:20:00 4.8 C 6.1 g/m*3 3.36 C 6.4 km/h
18 02-12-2016 01:25:00 4.8 C 6.1 g/m*3 3.36 C 6.4 km/h
19 02-12-2016 01:30:00 4.8 C 6.1 g/m*3 4.8 C 1.6 km/h
20 02-12-2016 01:35:00 4.8 C 6.17 g/m*3 3.36 C 6.4 km/h
21 02-12-2016 01:40:00 4.8 C 6.17 g/m*3 2.49 C 9.7 km/h
22 02-12-2016 01:45:00 4.9 C 6.14 g/m*3 3.48 C 6.4 km/h
23 02-12-2016 01:50:00 4.9 C 6.14 g/m*3 2.99 C 8.1 km/h
24 02-12-2016 01:55:00 4.9 C 6.14 g/m*3 4.9 C 1.6 km/h
25 02-12-2016 02:00:00 4.9 C 6.14 g/m*3 4.9 C 4.8 km/h
Sensor: Nr:Datum:Temp:Abs-Feuchte:Windchill:Wind:
Aussen-T/F 26 02-12-2016 02:05:00 4.8 C 6.1 g/m*3 4.8 C 1.6 km/h
27 02-12-2016 02:10:00 4.8 C 6.17 g/m*3 4.8 C 4.8 km/h
28 02-12-2016 02:15:00 4.8 C 6.17 g/m*3 3.36 C 6.4 km/h
29 02-12-2016 02:20:00 4.9 C 6.21 g/m*3 3.48 C 6.4 km/h
30 02-12-2016 02:25:00 4.9 C 6.21 g/m*3 2.61 C 9.7 km/h
31 02-12-2016 02:30:00 4.9 C 6.21 g/m*3 2.61 C 9.7 km/h
32 02-12-2016 02:35:00 5 C 6.25 g/m*3 3.59 C 6.4 km/h
33 02-12-2016 02:40:00 5 C 6.25 g/m*3 2.72 C 9.7 km/h
34 02-12-2016 02:45:00 5 C 6.25 g/m*3 3.11 C 8.1 km/h
35 02-12-2016 02:50:00 5 C 6.25 g/m*3 3.59 C 6.4 km/h
36 02-12-2016 02:55:00 5 C 6.25 g/m*3 2.39 C 11.3 km/h
37 02-12-2016 03:00:00 5 C 6.25 g/m*3 3.59 C 6.4 km/h
38 02-12-2016 03:05:00 5 C 6.25 g/m*3 3.11 C 8.1 km/h
39 02-12-2016 03:10:00 4.9 C 6.21 g/m*3 3.48 C 6.4 km/h
40 02-12-2016 03:15:00 4.9 C 6.21 g/m*3 4.9 C 4.8 km/h
41 02-12-2016 03:20:00 4.9 C 6.21 g/m*3 4.9 C 4.8 km/h
42 02-12-2016 03:25:00 4.9 C 6.21 g/m*3 3.48 C 6.4 km/h
43 02-12-2016 03:30:00 4.9 C 6.21 g/m*3 2.61 C 9.7 km/h
44 02-12-2016 03:35:00 5 C 6.25 g/m*3 5 C 3.2 km/h
45 02-12-2016 03:40:00 5 C 6.25 g/m*3 5 C 1.6 km/h
46 02-12-2016 03:45:00 5 C 6.25 g/m*3 3.59 C 6.4 km/h
47 02-12-2016 03:50:00 5 C 6.25 g/m*3 5 C 4.8 km/h
48 02-12-2016 03:55:00 5 C 6.32 g/m*3 5 C 1.6 km/h
49 02-12-2016 04:00:00 5.1 C 6.36 g/m*3 5.1 C 4.8 km/h
50 02-12-2016 04:05:00 5.1 C 6.36 g/m*3 5.1 C 4.8 km/h
Sensor: Nr:Datum:Temp:Abs-Feuchte:Windchill:Wind:
Aussen-T/F 51 02-12-2016 04:10:00 5.1 C 6.29 g/m*3 5.1 C 4.8 km/h
52 02-12-2016 04:15:00 5.2 C 6.33 g/m*3 5.2 C 4.8 km/h
53 02-12-2016 04:20:00 5.2 C 6.33 g/m*3 5.2 C 1.6 km/h
54 02-12-2016 04:25:00 5.2 C 6.33 g/m*3 5.2 C 3.2 km/h
55 02-12-2016 04:30:00 5.2 C 6.33 g/m*3 5.2 C 3.2 km/h
56 02-12-2016 04:35:00 5.2 C 6.33 g/m*3 5.2 C 0 km/h
57 02-12-2016 04:40:00 5.3 C 6.38 g/m*3 5.3 C 1.6 km/h
58 02-12-2016 04:45:00 5.3 C 6.38 g/m*3 5.3 C 3.2 km/h
59 02-12-2016 04:50:00 5.3 C 6.38 g/m*3 5.3 C 0 km/h
60 02-12-2016 04:55:00 5.3 C 6.38 g/m*3 5.3 C 0 km/h
61 02-12-2016 05:00:00 5.3 C 6.45 g/m*3 5.3 C 0 km/h
62 02-12-2016 05:05:00 5.3 C 6.45 g/m*3 5.3 C 1.6 km/h
63 02-12-2016 05:10:00 5.4 C 6.49 g/m*3 5.4 C 1.6 km/h
64 02-12-2016 05:15:00 5.4 C 6.49 g/m*3 5.4 C 3.2 km/h
65 02-12-2016 05:20:00 5.4 C 6.49 g/m*3 5.4 C 0 km/h
66 02-12-2016 05:25:00 5.4 C 6.49 g/m*3 5.4 C 0 km/h
67 02-12-2016 05:30:00 5.4 C 6.49 g/m*3 5.4 C 1.6 km/h
68 02-12-2016 05:35:00 5.4 C 6.49 g/m*3 5.4 C 1.6 km/h
69 02-12-2016 05:40:00 5.4 C 6.49 g/m*3 5.4 C 0 km/h
70 02-12-2016 05:45:00 5.4 C 6.49 g/m*3 5.4 C 1.6 km/h
71 02-12-2016 05:50:00 5.5 C 6.53 g/m*3 5.5 C 1.6 km/h
72 02-12-2016 05:55:00 5.5 C 6.53 g/m*3 5.5 C 4.8 km/h
73 02-12-2016 06:00:00 5.6 C 6.57 g/m*3 5.6 C 4.8 km/h
74 02-12-2016 06:05:00 5.7 C 6.62 g/m*3 3.93 C 8.1 km/h
75 02-12-2016 06:10:00 5.7 C 6.62 g/m*3 4.4 C 6.4 km/h
Sensor: Nr:Datum:Temp:Abs-Feuchte:Windchill:Wind:
Aussen-T/F 76 02-12-2016 06:15:00 5.7 C 6.62 g/m*3 5.7 C 1.6 km/h
77 02-12-2016 06:20:00 5.8 C 6.59 g/m*3 4.52 C 6.4 km/h
78 02-12-2016 06:25:00 5.7 C 6.55 g/m*3 4.4 C 6.4 km/h
79 02-12-2016 06:30:00 5.7 C 6.55 g/m*3 5.7 C 3.2 km/h
80 02-12-2016 06:35:00 5.7 C 6.55 g/m*3 5.7 C 3.2 km/h
81 02-12-2016 06:40:00 5.7 C 6.55 g/m*3 5.7 C 3.2 km/h
82 02-12-2016 06:45:00 5.7 C 6.55 g/m*3 5.7 C 4.8 km/h
83 02-12-2016 06:50:00 5.8 C 6.66 g/m*3 5.8 C 4.8 km/h
84 02-12-2016 06:55:00 5.8 C 6.59 g/m*3 5.8 C 3.2 km/h
85 02-12-2016 07:00:00 5.8 C 6.59 g/m*3 5.8 C 1.6 km/h
86 02-12-2016 07:05:00 5.8 C 6.66 g/m*3 5.8 C 1.6 km/h
87 02-12-2016 07:10:00 5.9 C 6.71 g/m*3 4.17 C 8.1 km/h
88 02-12-2016 07:15:00 5.9 C 6.71 g/m*3 5.9 C 4.8 km/h
89 02-12-2016 07:20:00 5.9 C 6.71 g/m*3 5.9 C 1.6 km/h
90 02-12-2016 07:25:00 5.9 C 6.71 g/m*3 4.63 C 6.4 km/h
91 02-12-2016 07:30:00 5.8 C 6.66 g/m*3 5.8 C 4.8 km/h
92 02-12-2016 07:35:00 5.8 C 6.66 g/m*3 5.8 C 3.2 km/h
93 02-12-2016 07:40:00 5.8 C 6.66 g/m*3 5.8 C 3.2 km/h
94 02-12-2016 07:45:00 5.8 C 6.66 g/m*3 5.8 C 1.6 km/h
95 02-12-2016 07:50:00 5.7 C 6.62 g/m*3 5.7 C 4.8 km/h
96 02-12-2016 07:55:00 5.7 C 6.62 g/m*3 5.7 C 1.6 km/h
97 02-12-2016 08:00:00 5.7 C 6.62 g/m*3 5.7 C 0 km/h
98 02-12-2016 08:05:00 5.8 C 6.66 g/m*3 5.8 C 0 km/h
99 02-12-2016 08:10:00 5.8 C 6.66 g/m*3 4.52 C 6.4 km/h
100 02-12-2016 08:15:00 5.8 C 6.66 g/m*3 5.8 C 3.2 km/h
Sensor: Nr:Datum:Temp:Abs-Feuchte:Windchill:Wind:
Aussen-T/F 101 02-12-2016 08:20:00 5.8 C 6.66 g/m*3 5.8 C 0 km/h
102 02-12-2016 08:25:00 5.8 C 6.73 g/m*3 5.8 C 4.8 km/h
103 02-12-2016 08:30:00 5.8 C 6.73 g/m*3 5.8 C 0 km/h
104 02-12-2016 08:35:00 5.8 C 6.73 g/m*3 5.8 C 4.8 km/h
105 02-12-2016 08:40:00 5.8 C 6.66 g/m*3 5.8 C 4.8 km/h
106 02-12-2016 08:45:00 5.9 C 6.78 g/m*3 5.9 C 3.2 km/h
107 02-12-2016 08:50:00 5.9 C 6.71 g/m*3 5.9 C 4.8 km/h
108 02-12-2016 08:55:00 5.9 C 6.78 g/m*3 5.9 C 3.2 km/h
109 02-12-2016 09:00:00 5.9 C 6.78 g/m*3 5.9 C 3.2 km/h
110 02-12-2016 09:05:00 6.1 C 6.87 g/m*3 4.4 C 8.1 km/h
111 02-12-2016 09:10:00 6.1 C 6.79 g/m*3 4.86 C 6.4 km/h
112 02-12-2016 09:15:00 6.1 C 6.79 g/m*3 6.1 C 3.2 km/h
113 02-12-2016 09:20:00 6.2 C 6.84 g/m*3 4.98 C 6.4 km/h
114 02-12-2016 09:25:00 6.2 C 6.84 g/m*3 4.52 C 8.1 km/h
115 02-12-2016 09:30:00 6.2 C 6.84 g/m*3 4.52 C 8.1 km/h
116 02-12-2016 09:35:00 6.3 C 6.88 g/m*3 4.64 C 8.1 km/h
117 02-12-2016 09:40:00 6.3 C 6.81 g/m*3 6.3 C 4.8 km/h
118 02-12-2016 09:45:00 6.3 C 6.81 g/m*3 6.3 C 3.2 km/h
119 02-12-2016 09:50:00 6.3 C 6.81 g/m*3 6.3 C 4.8 km/h
120 02-12-2016 09:55:00 6.3 C 6.81 g/m*3 6.3 C 0 km/h
121 02-12-2016 10:00:00 6.3 C 6.81 g/m*3 5.1 C 6.4 km/h
122 02-12-2016 10:05:00 6.3 C 6.81 g/m*3 6.3 C 1.6 km/h
123 02-12-2016 10:10:00 6.3 C 6.81 g/m*3 5.1 C 6.4 km/h
124 02-12-2016 10:15:00 6.3 C 6.81 g/m*3 6.3 C 4.8 km/h
125 02-12-2016 10:20:00 6.3 C 6.81 g/m*3 6.3 C 3.2 km/h
Sensor: Nr:Datum:Temp:Abs-Feuchte:Windchill:Wind:
Aussen-T/F 126 02-12-2016 10:25:00 6.4 C 6.85 g/m*3 6.4 C 4.8 km/h
127 02-12-2016 10:30:00 6.4 C 6.85 g/m*3 6.4 C 4.8 km/h
128 02-12-2016 10:35:00 6.4 C 6.85 g/m*3 6.4 C 4.8 km/h
129 02-12-2016 10:40:00 6.4 C 6.85 g/m*3 6.4 C 1.6 km/h
130 02-12-2016 10:45:00 6.5 C 6.97 g/m*3 5.33 C 6.4 km/h
131 02-12-2016 10:50:00 6.6 C 7.02 g/m*3 5.44 C 6.4 km/h
132 02-12-2016 10:55:00 6.7 C 7.07 g/m*3 5.56 C 6.4 km/h
133 02-12-2016 11:00:00 6.7 C 7.07 g/m*3 6.7 C 3.2 km/h
134 02-12-2016 11:05:00 6.8 C 7.11 g/m*3 6.8 C 4.8 km/h
135 02-12-2016 11:10:00 6.8 C 7.11 g/m*3 6.8 C 4.8 km/h
136 02-12-2016 11:15:00 6.8 C 7.04 g/m*3 6.8 C 4.8 km/h
137 02-12-2016 11:20:00 6.8 C 7.04 g/m*3 6.8 C 4.8 km/h
138 02-12-2016 11:25:00 6.8 C 7.04 g/m*3 5.67 C 6.4 km/h
139 02-12-2016 11:30:00 6.8 C 7.04 g/m*3 6.8 C 3.2 km/h
140 02-12-2016 11:35:00 6.8 C 7.04 g/m*3 6.8 C 3.2 km/h
141 02-12-2016 11:40:00 6.8 C 7.04 g/m*3 6.8 C 3.2 km/h
142 02-12-2016 11:45:00 6.7 C 6.99 g/m*3 6.7 C 1.6 km/h
143 02-12-2016 11:50:00 6.7 C 6.99 g/m*3 6.7 C 3.2 km/h
144 02-12-2016 11:55:00 6.7 C 6.99 g/m*3 5.56 C 6.4 km/h
145 02-12-2016 12:00:00 6.7 C 7.07 g/m*3 5.56 C 6.4 km/h
146 02-12-2016 12:05:00 6.7 C 7.07 g/m*3 6.7 C 4.8 km/h
147 02-12-2016 12:10:00 6.7 C 7.07 g/m*3 6.7 C 3.2 km/h
148 02-12-2016 12:15:00 6.7 C 7.07 g/m*3 6.7 C 1.6 km/h
149 02-12-2016 12:20:00 6.7 C 7.07 g/m*3 5.56 C 6.4 km/h
150 02-12-2016 12:25:00 6.7 C 7.07 g/m*3 5.11 C 8.1 km/h
Sensor: Nr:Datum:Temp:Abs-Feuchte:Windchill:Wind:
Aussen-T/F 151 02-12-2016 12:30:00 6.7 C 7.07 g/m*3 6.7 C 3.2 km/h
152 02-12-2016 12:35:00 6.7 C 7.14 g/m*3 6.7 C 4.8 km/h
153 02-12-2016 12:40:00 6.7 C 7.14 g/m*3 6.7 C 3.2 km/h
154 02-12-2016 12:45:00 6.7 C 7.14 g/m*3 6.7 C 3.2 km/h
155 02-12-2016 12:50:00 6.8 C 7.19 g/m*3 6.8 C 1.6 km/h
156 02-12-2016 12:55:00 6.8 C 7.19 g/m*3 6.8 C 1.6 km/h
157 02-12-2016 13:00:00 6.8 C 7.19 g/m*3 6.8 C 1.6 km/h
158 02-12-2016 13:05:00 6.8 C 7.19 g/m*3 6.8 C 0 km/h
159 02-12-2016 13:10:00 6.8 C 7.19 g/m*3 6.8 C 0 km/h
160 02-12-2016 13:15:00 6.9 C 7.24 g/m*3 6.9 C 1.6 km/h
161 02-12-2016 13:20:00 6.9 C 7.31 g/m*3 6.9 C 1.6 km/h
162 02-12-2016 13:25:00 7.1 C 7.41 g/m*3 7.1 C 3.2 km/h
163 02-12-2016 13:30:00 7.2 C 7.46 g/m*3 7.2 C 3.2 km/h
164 02-12-2016 13:35:00 7.2 C 7.46 g/m*3 7.2 C 0 km/h
165 02-12-2016 13:40:00 7.3 C 7.51 g/m*3 7.3 C 3.2 km/h
166 02-12-2016 13:45:00 7.2 C 7.46 g/m*3 7.2 C 3.2 km/h
167 02-12-2016 13:50:00 7.2 C 7.46 g/m*3 7.2 C 0 km/h
168 02-12-2016 13:55:00 7.2 C 7.46 g/m*3 7.2 C 0 km/h
169 02-12-2016 14:00:00 7.3 C 7.51 g/m*3 7.3 C 0 km/h
170 02-12-2016 14:05:00 7.4 C 7.55 g/m*3 7.4 C 1.6 km/h
171 02-12-2016 14:10:00 7.4 C 7.55 g/m*3 7.4 C 0 km/h
172 02-12-2016 14:15:00 7.5 C 7.6 g/m*3 7.5 C 1.6 km/h
173 02-12-2016 14:20:00 7.5 C 7.6 g/m*3 7.5 C 1.6 km/h
174 02-12-2016 14:25:00 7.4 C 7.55 g/m*3 7.4 C 0 km/h
175 02-12-2016 14:30:00 7.5 C 7.6 g/m*3 7.5 C 0 km/h
Sensor: Nr:Datum:Temp:Abs-Feuchte:Windchill:Wind:
Aussen-T/F 176 02-12-2016 14:35:00 7.5 C 7.6 g/m*3 7.5 C 0 km/h
177 02-12-2016 14:40:00 7.5 C 7.6 g/m*3 7.5 C 1.6 km/h
178 02-12-2016 14:45:00 7.4 C 7.55 g/m*3 7.4 C 0 km/h
179 02-12-2016 14:50:00 7.4 C 7.55 g/m*3 7.4 C 0 km/h
180 02-12-2016 14:55:00 7.3 C 7.51 g/m*3 7.3 C 1.6 km/h
181 02-12-2016 15:00:00 7.3 C 7.51 g/m*3 7.3 C 3.2 km/h
182 02-12-2016 15:05:00 7.2 C 7.46 g/m*3 7.2 C 0 km/h
183 02-12-2016 15:10:00 7.2 C 7.46 g/m*3 7.2 C 0 km/h
184 02-12-2016 15:15:00 7.2 C 7.46 g/m*3 7.2 C 0 km/h
185 02-12-2016 15:20:00 7.3 C 7.51 g/m*3 7.3 C 1.6 km/h
186 02-12-2016 15:25:00 7.3 C 7.51 g/m*3 7.3 C 0 km/h
187 02-12-2016 15:30:00 7.3 C 7.51 g/m*3 7.3 C 0 km/h
188 02-12-2016 15:35:00 7.3 C 7.51 g/m*3 7.3 C 0 km/h
189 02-12-2016 15:40:00 7.3 C 7.51 g/m*3 7.3 C 0 km/h
190 02-12-2016 15:45:00 7.3 C 7.51 g/m*3 7.3 C 0 km/h
191 02-12-2016 15:50:00 7.3 C 7.51 g/m*3 7.3 C 1.6 km/h
192 02-12-2016 15:55:00 7.3 C 7.51 g/m*3 7.3 C 0 km/h
193 02-12-2016 16:00:00 7.2 C 7.54 g/m*3 7.2 C 0 km/h
194 02-12-2016 16:05:00 7.2 C 7.54 g/m*3 7.2 C 0 km/h
195 02-12-2016 16:10:00 7.1 C 7.49 g/m*3 7.1 C 0 km/h
196 02-12-2016 16:15:00 7.1 C 7.49 g/m*3 7.1 C 0 km/h
197 02-12-2016 16:20:00 7.1 C 7.41 g/m*3 7.1 C 1.6 km/h
198 02-12-2016 16:25:00 7 C 7.36 g/m*3 7 C 0 km/h
199 02-12-2016 16:30:00 6.9 C 7.31 g/m*3 6.9 C 0 km/h
200 02-12-2016 16:35:00 6.8 C 7.27 g/m*3 6.8 C 0 km/h
Sensor: Nr:Datum:Temp:Abs-Feuchte:Windchill:Wind:
Aussen-T/F 201 02-12-2016 16:40:00 6.7 C 7.22 g/m*3 6.7 C 0 km/h
202 02-12-2016 16:45:00 6.5 C 7.12 g/m*3 6.5 C 0 km/h
203 02-12-2016 16:50:00 6.4 C 7.08 g/m*3 6.4 C 0 km/h
204 02-12-2016 16:55:00 6.3 C 7.03 g/m*3 6.3 C 1.6 km/h
205 02-12-2016 17:00:00 6.2 C 6.99 g/m*3 6.2 C 0 km/h
206 02-12-2016 17:05:00 6.1 C 6.94 g/m*3 6.1 C 3.2 km/h
207 02-12-2016 17:10:00 6 C 6.9 g/m*3 6 C 3.2 km/h
208 02-12-2016 17:15:00 5.8 C 6.81 g/m*3 5.8 C 1.6 km/h
209 02-12-2016 17:20:00 5.7 C 6.76 g/m*3 5.7 C 1.6 km/h
210 02-12-2016 17:25:00 5.6 C 6.72 g/m*3 5.6 C 3.2 km/h
211 02-12-2016 17:30:00 5.6 C 6.72 g/m*3 5.6 C 3.2 km/h
212 02-12-2016 17:35:00 5.6 C 6.79 g/m*3 5.6 C 3.2 km/h
213 02-12-2016 17:40:00 5.6 C 6.79 g/m*3 5.6 C 1.6 km/h
214 02-12-2016 17:45:00 5.5 C 6.74 g/m*3 5.5 C 0 km/h
215 02-12-2016 17:50:00 5.5 C 6.74 g/m*3 5.5 C 1.6 km/h
216 02-12-2016 17:55:00 5.4 C 6.7 g/m*3 5.4 C 1.6 km/h
217 02-12-2016 18:00:00 5.4 C 6.7 g/m*3 5.4 C 1.6 km/h
218 02-12-2016 18:05:00 5.4 C 6.7 g/m*3 5.4 C 0 km/h
219 02-12-2016 18:10:00 5.3 C 6.65 g/m*3 5.3 C 0 km/h
220 02-12-2016 18:15:00 5.3 C 6.65 g/m*3 5.3 C 0 km/h
221 02-12-2016 18:20:00 5.3 C 6.65 g/m*3 5.3 C 0 km/h
222 02-12-2016 18:25:00 5.3 C 6.65 g/m*3 5.3 C 1.6 km/h
223 02-12-2016 18:30:00 5.3 C 6.65 g/m*3 5.3 C 1.6 km/h
224 02-12-2016 18:35:00 5.3 C 6.65 g/m*3 5.3 C 0 km/h
225 02-12-2016 18:40:00 5.3 C 6.65 g/m*3 5.3 C 0 km/h
Sensor: Nr:Datum:Temp:Abs-Feuchte:Windchill:Wind:
Aussen-T/F 226 02-12-2016 18:45:00 5.3 C 6.65 g/m*3 5.3 C 0 km/h
227 02-12-2016 18:50:00 5.2 C 6.61 g/m*3 5.2 C 0 km/h
228 02-12-2016 18:55:00 5 C 6.52 g/m*3 5 C 3.2 km/h
229 02-12-2016 19:00:00 4.8 C 6.44 g/m*3 4.8 C 3.2 km/h
230 02-12-2016 19:05:00 4.6 C 6.29 g/m*3 4.6 C 1.6 km/h
231 02-12-2016 19:10:00 4.4 C 6.2 g/m*3 4.4 C 0 km/h
232 02-12-2016 19:15:00 4.2 C 6.12 g/m*3 4.2 C 1.6 km/h
233 02-12-2016 19:20:00 4.1 C 6.08 g/m*3 4.1 C 0 km/h
234 02-12-2016 19:25:00 3.9 C 6 g/m*3 3.9 C 3.2 km/h
235 02-12-2016 19:30:00 3.9 C 6.06 g/m*3 3.9 C 3.2 km/h
236 02-12-2016 19:35:00 3.8 C 6.02 g/m*3 3.8 C 1.6 km/h
237 02-12-2016 19:40:00 3.7 C 5.92 g/m*3 3.7 C 1.6 km/h
238 02-12-2016 19:45:00 3.7 C 5.98 g/m*3 3.7 C 3.2 km/h
239 02-12-2016 19:50:00 3.6 C 5.94 g/m*3 3.6 C 0 km/h
240 02-12-2016 19:55:00 3.4 C 5.86 g/m*3 3.4 C 0 km/h
241 02-12-2016 20:00:00 3.3 C 5.76 g/m*3 3.3 C 0 km/h
242 02-12-2016 20:05:00 3.1 C 5.69 g/m*3 3.1 C 0 km/h
243 02-12-2016 20:10:00 2.9 C 5.61 g/m*3 2.9 C 0 km/h
244 02-12-2016 20:15:00 2.8 C 5.57 g/m*3 2.8 C 0 km/h
245 02-12-2016 20:20:00 2.7 C 5.54 g/m*3 2.7 C 0 km/h
246 02-12-2016 20:25:00 2.7 C 5.54 g/m*3 2.7 C 0 km/h
247 02-12-2016 20:30:00 2.6 C 5.56 g/m*3 2.6 C 0 km/h
248 02-12-2016 20:35:00 2.4 C 5.42 g/m*3 2.4 C 0 km/h
249 02-12-2016 20:40:00 2.3 C 5.39 g/m*3 2.3 C 0 km/h
250 02-12-2016 20:45:00 2.3 C 5.44 g/m*3 2.3 C 0 km/h
Sensor: Nr:Datum:Temp:Abs-Feuchte:Windchill:Wind:
Aussen-T/F 251 02-12-2016 20:50:00 2.3 C 5.44 g/m*3 2.3 C 0 km/h
252 02-12-2016 20:55:00 2.2 C 5.41 g/m*3 2.2 C 0 km/h
253 02-12-2016 21:00:00 2.2 C 5.41 g/m*3 2.2 C 0 km/h
254 02-12-2016 21:05:00 2 C 5.33 g/m*3 2 C 0 km/h
255 02-12-2016 21:10:00 1.9 C 5.3 g/m*3 1.9 C 0 km/h
256 02-12-2016 21:15:00 1.8 C 5.21 g/m*3 1.8 C 0 km/h
257 02-12-2016 21:20:00 1.7 C 5.17 g/m*3 1.7 C 0 km/h
258 02-12-2016 21:25:00 1.6 C 5.19 g/m*3 1.6 C 0 km/h
259 02-12-2016 21:30:00 1.5 C 5.16 g/m*3 1.5 C 0 km/h
260 02-12-2016 21:35:00 1.4 C 5.12 g/m*3 1.4 C 0 km/h
261 02-12-2016 21:40:00 1.3 C 5.09 g/m*3 1.3 C 0 km/h
262 02-12-2016 21:45:00 1.3 C 5.09 g/m*3 1.3 C 0 km/h
263 02-12-2016 21:50:00 1.3 C 5.09 g/m*3 1.3 C 0 km/h
264 02-12-2016 21:55:00 1.3 C 5.09 g/m*3 1.3 C 0 km/h
265 02-12-2016 22:00:00 1.3 C 5.09 g/m*3 1.3 C 0 km/h
266 02-12-2016 22:05:00 1.3 C 5.09 g/m*3 1.3 C 0 km/h
267 02-12-2016 22:10:00 1.3 C 5.09 g/m*3 1.3 C 0 km/h
268 02-12-2016 22:15:00 1.3 C 5.09 g/m*3 1.3 C 0 km/h
269 02-12-2016 22:20:00 1.3 C 5.09 g/m*3 1.3 C 0 km/h
270 02-12-2016 22:25:00 1.3 C 5.09 g/m*3 1.3 C 0 km/h
271 02-12-2016 22:30:00 1.4 C 5.12 g/m*3 1.4 C 0 km/h
272 02-12-2016 22:35:00 1.4 C 5.12 g/m*3 1.4 C 0 km/h
273 02-12-2016 22:40:00 1.4 C 5.12 g/m*3 1.4 C 0 km/h
274 02-12-2016 22:45:00 1.5 C 5.16 g/m*3 1.5 C 0 km/h
275 02-12-2016 22:50:00 1.6 C 5.19 g/m*3 1.6 C 0 km/h
Sensor: Nr:Datum:Temp:Abs-Feuchte:Windchill:Wind:
Aussen-T/F 276 02-12-2016 22:55:00 1.6 C 5.19 g/m*3 1.6 C 0 km/h
277 02-12-2016 23:00:00 1.7 C 5.23 g/m*3 1.7 C 0 km/h
278 02-12-2016 23:05:00 1.6 C 5.19 g/m*3 1.6 C 0 km/h
279 02-12-2016 23:10:00 1.6 C 5.19 g/m*3 1.6 C 0 km/h
280 02-12-2016 23:15:00 1.6 C 5.19 g/m*3 1.6 C 0 km/h
281 02-12-2016 23:20:00 1.5 C 5.16 g/m*3 1.5 C 0 km/h
282 02-12-2016 23:25:00 1.4 C 5.12 g/m*3 1.4 C 0 km/h
283 02-12-2016 23:30:00 1.4 C 5.12 g/m*3 1.4 C 0 km/h
284 02-12-2016 23:35:00 1.3 C 5.09 g/m*3 1.3 C 0 km/h
285 02-12-2016 23:40:00 1.3 C 5.09 g/m*3 1.3 C 0 km/h
286 02-12-2016 23:45:00 1.3 C 5.09 g/m*3 1.3 C 0 km/h
287 02-12-2016 23:50:00 1.4 C 5.12 g/m*3 1.4 C 0 km/h
288 02-12-2016 23:55:00 1.4 C 5.12 g/m*3 1.4 C 0 km/h

Legende:
   Min
   Max


Maximal/Minimal-Werte vom 02.12.2016 - 02.12.2016

Sensor Min Max Avg
Temp
(Aussen-T/F)
1.3 °C
02-12-2016  21:40:00
7.5 °C
02-12-2016  14:15:00
5.17 °C
Abs-Feuchte
(Aussen-T/F)
5.09 g/m*3
02-12-2016  21:40:00
7.6 g/m*3
02-12-2016  14:15:00
6.46 g/m*3
Windchill
(Aussen-T/F)
1.3 C
02-12-2016  21:40:00
7.5 C
02-12-2016  14:15:00
4.84 C

Die Daten stammen von einer Davis Vantage Pro 2 Wetter-Station und werden unter Linux mit der Software wview2wettercgi und aufbereitet. Alle Angaben erfolgen ohne Gewähr für ihre Vollständigkeit oder Richtigkeit.
Kontakt: Rainer Krienke krienke@uni-koblenz.de . Meine Webseiten an der Uni Koblenz oder privat.
Version: $Revision: 0.78 $